sensor_id;sensor_type;location;lat;lon;timestamp;P1;durP1;ratioP1;P2;durP2;ratioP2
56005;SDS011;41888;44.696;10.522;2023-05-07T00:00:45;12.20;;;7.35;;
56005;SDS011;41888;44.696;10.522;2023-05-07T00:03:11;10.07;;;6.93;;
56005;SDS011;41888;44.696;10.522;2023-05-07T00:05:38;10.63;;;7.38;;
56005;SDS011;41888;44.696;10.522;2023-05-07T00:08:04;12.05;;;8.13;;
56005;SDS011;41888;44.696;10.522;2023-05-07T00:10:31;11.73;;;7.85;;
56005;SDS011;41888;44.696;10.522;2023-05-07T00:12:57;10.32;;;7.15;;
56005;SDS011;41888;44.696;10.522;2023-05-07T00:15:23;10.57;;;7.05;;
56005;SDS011;41888;44.696;10.522;2023-05-07T00:17:49;9.88;;;6.80;;
56005;SDS011;41888;44.696;10.522;2023-05-07T00:20:15;9.63;;;6.93;;
56005;SDS011;41888;44.696;10.522;2023-05-07T00:22:41;11.63;;;7.18;;
56005;SDS011;41888;44.696;10.522;2023-05-07T00:25:08;10.25;;;6.97;;
56005;SDS011;41888;44.696;10.522;2023-05-07T00:27:35;10.73;;;7.78;;
56005;SDS011;41888;44.696;10.522;2023-05-07T00:30:01;11.18;;;7.93;;
56005;SDS011;41888;44.696;10.522;2023-05-07T00:32:27;9.73;;;6.45;;
56005;SDS011;41888;44.696;10.522;2023-05-07T00:34:53;10.73;;;7.68;;
56005;SDS011;41888;44.696;10.522;2023-05-07T00:37:20;10.10;;;7.10;;
56005;SDS011;41888;44.696;10.522;2023-05-07T00:39:46;11.70;;;7.40;;
56005;SDS011;41888;44.696;10.522;2023-05-07T00:42:12;10.10;;;7.43;;
56005;SDS011;41888;44.696;10.522;2023-05-07T00:44:40;10.45;;;7.20;;
56005;SDS011;41888;44.696;10.522;2023-05-07T00:47:06;8.60;;;7.05;;
56005;SDS011;41888;44.696;10.522;2023-05-07T00:49:35;9.95;;;6.85;;
56005;SDS011;41888;44.696;10.522;2023-05-07T00:52:05;10.75;;;7.45;;
56005;SDS011;41888;44.696;10.522;2023-05-07T00:54:34;17.08;;;8.00;;
56005;SDS011;41888;44.696;10.522;2023-05-07T00:57:01;10.15;;;7.82;;
56005;SDS011;41888;44.696;10.522;2023-05-07T00:59:28;11.52;;;8.02;;
56005;SDS011;41888;44.696;10.522;2023-05-07T01:01:56;9.77;;;7.05;;
56005;SDS011;41888;44.696;10.522;2023-05-07T01:04:22;10.77;;;7.28;;
56005;SDS011;41888;44.696;10.522;2023-05-07T01:06:49;14.63;;;8.80;;
56005;SDS011;41888;44.696;10.522;2023-05-07T01:09:17;11.77;;;7.63;;
56005;SDS011;41888;44.696;10.522;2023-05-07T01:11:45;13.30;;;7.30;;
56005;SDS011;41888;44.696;10.522;2023-05-07T01:14:12;12.32;;;8.45;;
56005;SDS011;41888;44.696;10.522;2023-05-07T01:16:38;12.48;;;7.47;;
56005;SDS011;41888;44.696;10.522;2023-05-07T01:19:05;11.15;;;7.70;;
56005;SDS011;41888;44.696;10.522;2023-05-07T01:21:33;11.57;;;7.65;;
56005;SDS011;41888;44.696;10.522;2023-05-07T01:24:02;13.05;;;7.53;;
56005;SDS011;41888;44.696;10.522;2023-05-07T01:26:30;12.27;;;7.28;;
56005;SDS011;41888;44.696;10.522;2023-05-07T01:28:56;12.50;;;7.55;;
56005;SDS011;41888;44.696;10.522;2023-05-07T01:31:23;10.95;;;7.03;;
56005;SDS011;41888;44.696;10.522;2023-05-07T01:33:50;11.15;;;7.97;;
56005;SDS011;41888;44.696;10.522;2023-05-07T01:36:18;8.90;;;6.70;;
56005;SDS011;41888;44.696;10.522;2023-05-07T01:38:48;10.80;;;6.93;;
56005;SDS011;41888;44.696;10.522;2023-05-07T01:41:15;10.48;;;6.88;;
56005;SDS011;41888;44.696;10.522;2023-05-07T01:43:41;8.85;;;7.40;;
56005;SDS011;41888;44.696;10.522;2023-05-07T01:46:08;11.55;;;7.35;;
56005;SDS011;41888;44.696;10.522;2023-05-07T01:48:35;9.23;;;6.55;;
56005;SDS011;41888;44.696;10.522;2023-05-07T01:51:04;11.13;;;7.40;;
56005;SDS011;41888;44.696;10.522;2023-05-07T01:53:37;11.75;;;7.63;;
56005;SDS011;41888;44.696;10.522;2023-05-07T01:56:04;9.57;;;7.55;;
56005;SDS011;41888;44.696;10.522;2023-05-07T01:58:31;10.43;;;6.95;;
56005;SDS011;41888;44.696;10.522;2023-05-07T02:00:57;11.30;;;7.18;;
56005;SDS011;41888;44.696;10.522;2023-05-07T02:03:23;12.38;;;7.38;;
56005;SDS011;41888;44.696;10.522;2023-05-07T02:05:49;14.73;;;8.63;;
56005;SDS011;41888;44.696;10.522;2023-05-07T02:08:15;9.35;;;7.00;;
56005;SDS011;41888;44.696;10.522;2023-05-07T02:10:41;10.60;;;7.25;;
56005;SDS011;41888;44.696;10.522;2023-05-07T02:13:08;11.05;;;7.65;;
56005;SDS011;41888;44.696;10.522;2023-05-07T02:15:34;11.93;;;7.80;;
56005;SDS011;41888;44.696;10.522;2023-05-07T02:18:07;10.65;;;7.53;;
56005;SDS011;41888;44.696;10.522;2023-05-07T02:20:34;12.50;;;8.27;;
56005;SDS011;41888;44.696;10.522;2023-05-07T02:23:00;13.18;;;7.07;;
56005;SDS011;41888;44.696;10.522;2023-05-07T02:25:26;10.32;;;7.25;;
56005;SDS011;41888;44.696;10.522;2023-05-07T02:27:54;10.57;;;7.75;;
56005;SDS011;41888;44.696;10.522;2023-05-07T02:30:20;10.23;;;7.97;;
56005;SDS011;41888;44.696;10.522;2023-05-07T02:32:46;10.38;;;7.47;;
56005;SDS011;41888;44.696;10.522;2023-05-07T02:35:12;13.48;;;7.78;;
56005;SDS011;41888;44.696;10.522;2023-05-07T02:37:39;10.50;;;7.13;;
56005;SDS011;41888;44.696;10.522;2023-05-07T02:40:05;11.85;;;7.38;;
56005;SDS011;41888;44.696;10.522;2023-05-07T02:42:32;12.43;;;7.63;;
56005;SDS011;41888;44.696;10.522;2023-05-07T02:44:58;12.10;;;8.32;;
56005;SDS011;41888;44.696;10.522;2023-05-07T02:47:24;11.48;;;9.13;;
56005;SDS011;41888;44.696;10.522;2023-05-07T02:49:53;13.25;;;8.90;;
56005;SDS011;41888;44.696;10.522;2023-05-07T02:52:20;10.60;;;8.00;;
56005;SDS011;41888;44.696;10.522;2023-05-07T02:54:46;10.63;;;7.95;;
56005;SDS011;41888;44.696;10.522;2023-05-07T02:57:13;15.43;;;8.82;;
56005;SDS011;41888;44.696;10.522;2023-05-07T02:59:39;11.80;;;8.20;;
56005;SDS011;41888;44.696;10.522;2023-05-07T03:02:06;11.25;;;8.05;;
56005;SDS011;41888;44.696;10.522;2023-05-07T03:04:32;12.38;;;8.70;;
56005;SDS011;41888;44.696;10.522;2023-05-07T03:06:58;14.18;;;8.80;;
56005;SDS011;41888;44.696;10.522;2023-05-07T03:09:34;13.80;;;9.27;;
56005;SDS011;41888;44.696;10.522;2023-05-07T03:12:01;13.32;;;9.07;;
56005;SDS011;41888;44.696;10.522;2023-05-07T03:14:27;12.23;;;8.85;;
56005;SDS011;41888;44.696;10.522;2023-05-07T03:16:53;20.48;;;12.30;;
56005;SDS011;41888;44.696;10.522;2023-05-07T03:19:19;22.10;;;12.23;;
56005;SDS011;41888;44.696;10.522;2023-05-07T03:21:46;16.83;;;11.07;;
56005;SDS011;41888;44.696;10.522;2023-05-07T03:24:12;16.88;;;9.80;;
56005;SDS011;41888;44.696;10.522;2023-05-07T03:26:38;16.17;;;10.90;;
56005;SDS011;41888;44.696;10.522;2023-05-07T03:29:04;14.70;;;9.57;;
56005;SDS011;41888;44.696;10.522;2023-05-07T03:31:30;16.77;;;10.43;;
56005;SDS011;41888;44.696;10.522;2023-05-07T03:33:57;16.55;;;10.65;;
56005;SDS011;41888;44.696;10.522;2023-05-07T03:36:23;14.95;;;10.30;;
56005;SDS011;41888;44.696;10.522;2023-05-07T03:38:51;15.30;;;11.07;;
56005;SDS011;41888;44.696;10.522;2023-05-07T03:41:17;18.70;;;11.23;;
56005;SDS011;41888;44.696;10.522;2023-05-07T03:43:45;16.05;;;10.55;;
56005;SDS011;41888;44.696;10.522;2023-05-07T03:46:11;12.85;;;9.18;;
56005;SDS011;41888;44.696;10.522;2023-05-07T03:48:38;15.73;;;10.80;;
56005;SDS011;41888;44.696;10.522;2023-05-07T03:51:04;16.05;;;10.23;;
56005;SDS011;41888;44.696;10.522;2023-05-07T03:53:30;18.25;;;11.25;;
56005;SDS011;41888;44.696;10.522;2023-05-07T03:55:56;17.42;;;10.27;;
56005;SDS011;41888;44.696;10.522;2023-05-07T03:58:22;16.25;;;10.43;;
56005;SDS011;41888;44.696;10.522;2023-05-07T04:00:48;13.00;;;9.27;;
56005;SDS011;41888;44.696;10.522;2023-05-07T04:03:14;13.20;;;9.25;;
56005;SDS011;41888;44.696;10.522;2023-05-07T04:05:42;17.58;;;9.30;;
56005;SDS011;41888;44.696;10.522;2023-05-07T04:08:08;13.48;;;9.10;;
56005;SDS011;41888;44.696;10.522;2023-05-07T04:10:35;10.90;;;7.88;;
56005;SDS011;41888;44.696;10.522;2023-05-07T04:13:01;14.68;;;7.97;;
56005;SDS011;41888;44.696;10.522;2023-05-07T04:15:27;12.10;;;8.05;;
56005;SDS011;41888;44.696;10.522;2023-05-07T04:17:53;11.02;;;7.70;;
56005;SDS011;41888;44.696;10.522;2023-05-07T04:20:19;11.70;;;7.78;;
56005;SDS011;41888;44.696;10.522;2023-05-07T04:22:45;11.73;;;7.53;;
56005;SDS011;41888;44.696;10.522;2023-05-07T04:25:11;11.45;;;7.32;;
56005;SDS011;41888;44.696;10.522;2023-05-07T04:27:38;13.07;;;7.47;;
56005;SDS011;41888;44.696;10.522;2023-05-07T04:30:04;10.90;;;7.07;;
56005;SDS011;41888;44.696;10.522;2023-05-07T04:32:31;12.48;;;7.25;;
56005;SDS011;41888;44.696;10.522;2023-05-07T04:34:57;8.35;;;6.55;;
56005;SDS011;41888;44.696;10.522;2023-05-07T04:37:25;12.25;;;6.97;;
56005;SDS011;41888;44.696;10.522;2023-05-07T04:39:51;9.07;;;6.75;;
56005;SDS011;41888;44.696;10.522;2023-05-07T04:42:17;10.15;;;6.38;;
56005;SDS011;41888;44.696;10.522;2023-05-07T04:44:44;8.63;;;5.97;;
56005;SDS011;41888;44.696;10.522;2023-05-07T04:47:11;8.60;;;6.13;;
56005;SDS011;41888;44.696;10.522;2023-05-07T04:49:38;9.27;;;6.15;;
56005;SDS011;41888;44.696;10.522;2023-05-07T04:52:04;8.30;;;5.88;;
56005;SDS011;41888;44.696;10.522;2023-05-07T04:54:30;7.95;;;5.53;;
56005;SDS011;41888;44.696;10.522;2023-05-07T04:56:56;9.27;;;6.35;;
56005;SDS011;41888;44.696;10.522;2023-05-07T04:59:23;8.82;;;5.45;;
56005;SDS011;41888;44.696;10.522;2023-05-07T05:01:49;9.30;;;5.55;;
56005;SDS011;41888;44.696;10.522;2023-05-07T05:04:15;9.13;;;5.45;;
56005;SDS011;41888;44.696;10.522;2023-05-07T05:06:41;7.50;;;5.05;;
56005;SDS011;41888;44.696;10.522;2023-05-07T05:09:07;8.75;;;5.65;;
56005;SDS011;41888;44.696;10.522;2023-05-07T05:11:34;8.82;;;4.97;;
56005;SDS011;41888;44.696;10.522;2023-05-07T05:14:00;8.65;;;5.50;;
56005;SDS011;41888;44.696;10.522;2023-05-07T05:16:27;7.38;;;5.35;;
56005;SDS011;41888;44.696;10.522;2023-05-07T05:18:53;8.98;;;5.25;;
56005;SDS011;41888;44.696;10.522;2023-05-07T05:21:20;6.72;;;4.72;;
56005;SDS011;41888;44.696;10.522;2023-05-07T05:23:46;5.78;;;4.18;;
56005;SDS011;41888;44.696;10.522;2023-05-07T05:26:12;8.05;;;4.70;;
56005;SDS011;41888;44.696;10.522;2023-05-07T05:28:38;6.85;;;4.60;;
56005;SDS011;41888;44.696;10.522;2023-05-07T05:31:05;8.65;;;4.47;;
56005;SDS011;41888;44.696;10.522;2023-05-07T05:33:31;7.43;;;4.65;;
56005;SDS011;41888;44.696;10.522;2023-05-07T05:35:57;6.88;;;4.10;;
56005;SDS011;41888;44.696;10.522;2023-05-07T05:38:23;8.02;;;4.60;;
56005;SDS011;41888;44.696;10.522;2023-05-07T05:40:50;6.72;;;4.40;;
56005;SDS011;41888;44.696;10.522;2023-05-07T05:43:16;8.90;;;4.43;;
56005;SDS011;41888;44.696;10.522;2023-05-07T05:45:43;6.47;;;4.68;;
56005;SDS011;41888;44.696;10.522;2023-05-07T05:48:09;8.57;;;4.57;;
56005;SDS011;41888;44.696;10.522;2023-05-07T05:50:35;7.10;;;4.47;;
56005;SDS011;41888;44.696;10.522;2023-05-07T05:53:01;9.27;;;5.20;;
56005;SDS011;41888;44.696;10.522;2023-05-07T05:55:28;8.57;;;6.05;;
56005;SDS011;41888;44.696;10.522;2023-05-07T05:57:54;15.55;;;6.10;;
56005;SDS011;41888;44.696;10.522;2023-05-07T06:00:21;12.48;;;7.30;;
56005;SDS011;41888;44.696;10.522;2023-05-07T06:02:48;9.68;;;6.22;;
56005;SDS011;41888;44.696;10.522;2023-05-07T06:05:14;12.20;;;6.55;;
56005;SDS011;41888;44.696;10.522;2023-05-07T06:07:40;12.38;;;6.60;;
56005;SDS011;41888;44.696;10.522;2023-05-07T06:10:06;16.08;;;7.60;;
56005;SDS011;41888;44.696;10.522;2023-05-07T06:12:33;11.63;;;7.45;;
56005;SDS011;41888;44.696;10.522;2023-05-07T06:14:59;14.02;;;8.40;;
56005;SDS011;41888;44.696;10.522;2023-05-07T06:17:25;12.02;;;7.88;;
56005;SDS011;41888;44.696;10.522;2023-05-07T06:19:52;13.18;;;7.53;;
56005;SDS011;41888;44.696;10.522;2023-05-07T06:22:18;10.00;;;7.20;;
56005;SDS011;41888;44.696;10.522;2023-05-07T06:24:44;12.63;;;7.60;;
56005;SDS011;41888;44.696;10.522;2023-05-07T06:27:11;6.05;;;4.72;;
56005;SDS011;41888;44.696;10.522;2023-05-07T06:29:37;8.25;;;4.03;;
56005;SDS011;41888;44.696;10.522;2023-05-07T06:32:07;5.45;;;4.05;;
56005;SDS011;41888;44.696;10.522;2023-05-07T06:34:37;5.88;;;3.63;;
56005;SDS011;41888;44.696;10.522;2023-05-07T06:37:04;6.35;;;4.03;;
56005;SDS011;41888;44.696;10.522;2023-05-07T06:39:31;6.07;;;4.20;;
56005;SDS011;41888;44.696;10.522;2023-05-07T06:41:57;5.32;;;3.47;;
56005;SDS011;41888;44.696;10.522;2023-05-07T06:44:24;7.57;;;3.80;;
56005;SDS011;41888;44.696;10.522;2023-05-07T06:46:51;4.65;;;3.30;;
56005;SDS011;41888;44.696;10.522;2023-05-07T06:49:17;6.03;;;3.53;;
56005;SDS011;41888;44.696;10.522;2023-05-07T06:51:43;7.75;;;3.80;;
56005;SDS011;41888;44.696;10.522;2023-05-07T06:54:09;6.35;;;4.47;;
56005;SDS011;41888;44.696;10.522;2023-05-07T06:56:36;5.68;;;4.18;;
56005;SDS011;41888;44.696;10.522;2023-05-07T06:59:02;6.82;;;4.75;;
56005;SDS011;41888;44.696;10.522;2023-05-07T07:01:28;5.90;;;4.38;;
56005;SDS011;41888;44.696;10.522;2023-05-07T07:03:54;6.40;;;4.90;;
56005;SDS011;41888;44.696;10.522;2023-05-07T07:06:21;7.63;;;4.78;;
56005;SDS011;41888;44.696;10.522;2023-05-07T07:08:47;7.68;;;5.50;;
56005;SDS011;41888;44.696;10.522;2023-05-07T07:11:13;7.07;;;5.20;;
56005;SDS011;41888;44.696;10.522;2023-05-07T07:13:40;8.23;;;5.20;;
56005;SDS011;41888;44.696;10.522;2023-05-07T07:16:08;9.65;;;5.50;;
56005;SDS011;41888;44.696;10.522;2023-05-07T07:18:34;7.57;;;5.70;;
56005;SDS011;41888;44.696;10.522;2023-05-07T07:21:00;8.27;;;5.78;;
56005;SDS011;41888;44.696;10.522;2023-05-07T07:23:27;7.68;;;5.38;;
56005;SDS011;41888;44.696;10.522;2023-05-07T07:25:53;9.75;;;5.88;;
56005;SDS011;41888;44.696;10.522;2023-05-07T07:28:20;10.40;;;6.22;;
56005;SDS011;41888;44.696;10.522;2023-05-07T07:30:47;7.15;;;5.10;;
56005;SDS011;41888;44.696;10.522;2023-05-07T07:33:13;8.45;;;5.72;;
56005;SDS011;41888;44.696;10.522;2023-05-07T07:35:39;8.38;;;6.30;;
56005;SDS011;41888;44.696;10.522;2023-05-07T07:38:05;8.15;;;6.00;;
56005;SDS011;41888;44.696;10.522;2023-05-07T07:40:33;8.15;;;5.82;;
56005;SDS011;41888;44.696;10.522;2023-05-07T07:43:00;9.35;;;6.75;;
56005;SDS011;41888;44.696;10.522;2023-05-07T07:45:27;15.10;;;6.82;;
56005;SDS011;41888;44.696;10.522;2023-05-07T07:47:54;12.27;;;7.60;;
56005;SDS011;41888;44.696;10.522;2023-05-07T07:50:20;13.10;;;7.95;;
56005;SDS011;41888;44.696;10.522;2023-05-07T07:52:46;12.13;;;7.97;;
56005;SDS011;41888;44.696;10.522;2023-05-07T07:55:13;10.07;;;7.97;;
56005;SDS011;41888;44.696;10.522;2023-05-07T07:57:43;11.70;;;7.53;;
56005;SDS011;41888;44.696;10.522;2023-05-07T08:00:09;13.60;;;9.20;;
56005;SDS011;41888;44.696;10.522;2023-05-07T08:02:35;12.25;;;7.90;;
56005;SDS011;41888;44.696;10.522;2023-05-07T08:05:02;9.23;;;6.60;;
56005;SDS011;41888;44.696;10.522;2023-05-07T08:07:28;10.80;;;7.47;;
56005;SDS011;41888;44.696;10.522;2023-05-07T08:09:54;11.88;;;8.48;;
56005;SDS011;41888;44.696;10.522;2023-05-07T08:12:21;11.02;;;7.68;;
56005;SDS011;41888;44.696;10.522;2023-05-07T08:14:47;13.07;;;8.65;;
56005;SDS011;41888;44.696;10.522;2023-05-07T08:17:13;10.93;;;7.78;;
56005;SDS011;41888;44.696;10.522;2023-05-07T08:19:41;10.73;;;7.70;;
56005;SDS011;41888;44.696;10.522;2023-05-07T08:22:08;11.85;;;8.20;;
56005;SDS011;41888;44.696;10.522;2023-05-07T08:24:35;11.20;;;7.60;;
56005;SDS011;41888;44.696;10.522;2023-05-07T08:27:02;12.73;;;7.88;;
56005;SDS011;41888;44.696;10.522;2023-05-07T08:29:28;11.07;;;7.43;;
56005;SDS011;41888;44.696;10.522;2023-05-07T08:31:54;10.95;;;7.40;;
56005;SDS011;41888;44.696;10.522;2023-05-07T08:34:21;11.93;;;7.90;;
56005;SDS011;41888;44.696;10.522;2023-05-07T08:36:47;13.55;;;7.95;;
56005;SDS011;41888;44.696;10.522;2023-05-07T08:39:17;11.73;;;8.35;;
56005;SDS011;41888;44.696;10.522;2023-05-07T08:41:46;9.07;;;6.47;;
56005;SDS011;41888;44.696;10.522;2023-05-07T08:44:19;10.48;;;6.53;;
56005;SDS011;41888;44.696;10.522;2023-05-07T08:46:47;10.93;;;7.47;;
56005;SDS011;41888;44.696;10.522;2023-05-07T08:49:16;10.77;;;7.30;;
56005;SDS011;41888;44.696;10.522;2023-05-07T08:51:43;11.07;;;7.20;;
56005;SDS011;41888;44.696;10.522;2023-05-07T08:54:09;11.60;;;7.78;;
56005;SDS011;41888;44.696;10.522;2023-05-07T08:56:37;12.82;;;8.38;;
56005;SDS011;41888;44.696;10.522;2023-05-07T08:59:05;11.13;;;7.60;;
56005;SDS011;41888;44.696;10.522;2023-05-07T09:01:31;13.52;;;8.20;;
56005;SDS011;41888;44.696;10.522;2023-05-07T09:03:57;11.23;;;8.02;;
56005;SDS011;41888;44.696;10.522;2023-05-07T09:06:23;11.60;;;7.65;;
56005;SDS011;41888;44.696;10.522;2023-05-07T09:08:50;10.05;;;7.68;;
56005;SDS011;41888;44.696;10.522;2023-05-07T09:11:23;11.50;;;7.88;;
56005;SDS011;41888;44.696;10.522;2023-05-07T09:13:53;8.77;;;6.70;;
56005;SDS011;41888;44.696;10.522;2023-05-07T09:16:21;9.55;;;7.38;;
56005;SDS011;41888;44.696;10.522;2023-05-07T09:18:50;12.02;;;7.03;;
56005;SDS011;41888;44.696;10.522;2023-05-07T09:21:18;9.00;;;6.78;;
56005;SDS011;41888;44.696;10.522;2023-05-07T09:23:45;12.63;;;7.20;;
56005;SDS011;41888;44.696;10.522;2023-05-07T09:26:12;9.25;;;6.22;;
56005;SDS011;41888;44.696;10.522;2023-05-07T09:28:40;11.18;;;6.68;;
56005;SDS011;41888;44.696;10.522;2023-05-07T09:31:07;10.38;;;7.00;;
56005;SDS011;41888;44.696;10.522;2023-05-07T09:33:34;7.68;;;6.55;;
56005;SDS011;41888;44.696;10.522;2023-05-07T09:36:07;9.00;;;6.90;;
56005;SDS011;41888;44.696;10.522;2023-05-07T09:38:34;8.50;;;5.60;;
56005;SDS011;41888;44.696;10.522;2023-05-07T09:41:11;8.90;;;6.55;;
56005;SDS011;41888;44.696;10.522;2023-05-07T09:43:38;7.93;;;6.18;;
56005;SDS011;41888;44.696;10.522;2023-05-07T09:46:15;6.93;;;5.43;;
56005;SDS011;41888;44.696;10.522;2023-05-07T09:48:43;7.07;;;5.50;;
56005;SDS011;41888;44.696;10.522;2023-05-07T09:51:13;6.47;;;5.00;;
56005;SDS011;41888;44.696;10.522;2023-05-07T09:53:41;8.93;;;4.95;;
56005;SDS011;41888;44.696;10.522;2023-05-07T09:56:11;6.22;;;5.20;;
56005;SDS011;41888;44.696;10.522;2023-05-07T09:58:39;7.97;;;4.90;;
56005;SDS011;41888;44.696;10.522;2023-05-07T10:01:08;6.65;;;5.47;;
56005;SDS011;41888;44.696;10.522;2023-05-07T10:03:37;7.03;;;4.60;;
56005;SDS011;41888;44.696;10.522;2023-05-07T10:06:06;6.07;;;3.65;;
56005;SDS011;41888;44.696;10.522;2023-05-07T10:08:34;6.07;;;4.72;;
56005;SDS011;41888;44.696;10.522;2023-05-07T10:11:01;6.72;;;4.95;;
56005;SDS011;41888;44.696;10.522;2023-05-07T10:13:28;9.88;;;4.43;;
56005;SDS011;41888;44.696;10.522;2023-05-07T10:15:55;5.53;;;4.05;;
56005;SDS011;41888;44.696;10.522;2023-05-07T10:18:22;5.75;;;4.25;;
56005;SDS011;41888;44.696;10.522;2023-05-07T10:20:54;6.43;;;4.35;;
56005;SDS011;41888;44.696;10.522;2023-05-07T10:23:24;6.38;;;4.80;;
56005;SDS011;41888;44.696;10.522;2023-05-07T10:25:52;4.50;;;3.78;;
56005;SDS011;41888;44.696;10.522;2023-05-07T10:28:20;4.90;;;3.47;;
56005;SDS011;41888;44.696;10.522;2023-05-07T10:33:53;5.30;;;3.30;;
56005;SDS011;41888;44.696;10.522;2023-05-07T10:36:21;6.00;;;4.03;;
56005;SDS011;41888;44.696;10.522;2023-05-07T10:38:49;6.20;;;4.60;;
56005;SDS011;41888;44.696;10.522;2023-05-07T10:41:15;4.22;;;3.50;;
56005;SDS011;41888;44.696;10.522;2023-05-07T10:43:44;4.05;;;3.22;;
56005;SDS011;41888;44.696;10.522;2023-05-07T10:51:27;5.78;;;3.55;;
56005;SDS011;41888;44.696;10.522;2023-05-07T10:56:39;4.10;;;3.03;;
56005;SDS011;41888;44.696;10.522;2023-05-07T11:04:19;6.03;;;4.43;;
56005;SDS011;41888;44.696;10.522;2023-05-07T11:17:32;5.20;;;3.30;;
56005;SDS011;41888;44.696;10.522;2023-05-07T11:20:00;5.20;;;3.72;;
56005;SDS011;41888;44.696;10.522;2023-05-07T11:25:01;7.72;;;5.70;;
56005;SDS011;41888;44.696;10.522;2023-05-07T11:27:28;8.43;;;5.22;;
56005;SDS011;41888;44.696;10.522;2023-05-07T11:29:55;8.48;;;5.82;;
56005;SDS011;41888;44.696;10.522;2023-05-07T11:32:25;7.00;;;5.65;;
56005;SDS011;41888;44.696;10.522;2023-05-07T11:34:57;5.70;;;4.32;;
56005;SDS011;41888;44.696;10.522;2023-05-07T11:37:24;9.07;;;5.53;;
56005;SDS011;41888;44.696;10.522;2023-05-07T11:40:06;7.40;;;5.28;;
56005;SDS011;41888;44.696;10.522;2023-05-07T11:42:35;6.05;;;4.55;;
56005;SDS011;41888;44.696;10.522;2023-05-07T11:45:03;6.35;;;3.97;;
56005;SDS011;41888;44.696;10.522;2023-05-07T11:47:30;6.18;;;4.57;;
56005;SDS011;41888;44.696;10.522;2023-05-07T11:49:57;6.03;;;4.03;;
56005;SDS011;41888;44.696;10.522;2023-05-07T11:52:29;6.47;;;4.80;;
56005;SDS011;41888;44.696;10.522;2023-05-07T11:54:56;4.90;;;3.80;;
56005;SDS011;41888;44.696;10.522;2023-05-07T11:57:25;8.43;;;4.70;;
56005;SDS011;41888;44.696;10.522;2023-05-07T11:59:58;6.15;;;3.95;;
56005;SDS011;41888;44.696;10.522;2023-05-07T12:02:27;9.07;;;5.47;;
56005;SDS011;41888;44.696;10.522;2023-05-07T12:04:54;6.57;;;5.07;;
56005;SDS011;41888;44.696;10.522;2023-05-07T12:07:20;7.45;;;4.80;;
56005;SDS011;41888;44.696;10.522;2023-05-07T12:09:48;4.80;;;4.07;;
56005;SDS011;41888;44.696;10.522;2023-05-07T12:12:15;7.95;;;4.47;;
56005;SDS011;41888;44.696;10.522;2023-05-07T12:14:43;6.38;;;4.75;;
56005;SDS011;41888;44.696;10.522;2023-05-07T12:17:10;8.15;;;4.63;;
56005;SDS011;41888;44.696;10.522;2023-05-07T12:19:38;6.13;;;4.30;;
56005;SDS011;41888;44.696;10.522;2023-05-07T12:22:09;6.03;;;4.18;;
56005;SDS011;41888;44.696;10.522;2023-05-07T12:27:15;5.45;;;3.55;;
56005;SDS011;41888;44.696;10.522;2023-05-07T12:29:48;7.05;;;4.97;;
56005;SDS011;41888;44.696;10.522;2023-05-07T12:32:24;6.50;;;4.10;;
56005;SDS011;41888;44.696;10.522;2023-05-07T12:34:51;5.85;;;3.60;;
56005;SDS011;41888;44.696;10.522;2023-05-07T12:37:22;4.88;;;3.63;;
56005;SDS011;41888;44.696;10.522;2023-05-07T12:40:02;5.38;;;4.07;;
56005;SDS011;41888;44.696;10.522;2023-05-07T12:42:32;6.45;;;4.05;;
56005;SDS011;41888;44.696;10.522;2023-05-07T12:45:07;7.22;;;4.97;;
56005;SDS011;41888;44.696;10.522;2023-05-07T12:47:37;5.03;;;4.28;;
56005;SDS011;41888;44.696;10.522;2023-05-07T12:50:06;6.82;;;4.97;;
56005;SDS011;41888;44.696;10.522;2023-05-07T12:52:33;6.28;;;4.43;;
56005;SDS011;41888;44.696;10.522;2023-05-07T12:55:06;5.63;;;4.50;;
56005;SDS011;41888;44.696;10.522;2023-05-07T12:57:43;7.30;;;4.53;;
56005;SDS011;41888;44.696;10.522;2023-05-07T13:00:16;4.95;;;3.72;;
56005;SDS011;41888;44.696;10.522;2023-05-07T13:02:43;6.72;;;4.65;;
56005;SDS011;41888;44.696;10.522;2023-05-07T13:05:10;6.32;;;4.47;;
56005;SDS011;41888;44.696;10.522;2023-05-07T13:07:36;5.45;;;3.92;;
56005;SDS011;41888;44.696;10.522;2023-05-07T13:10:03;5.97;;;3.70;;
56005;SDS011;41888;44.696;10.522;2023-05-07T13:12:29;7.32;;;4.57;;
56005;SDS011;41888;44.696;10.522;2023-05-07T13:14:56;5.05;;;3.90;;
56005;SDS011;41888;44.696;10.522;2023-05-07T13:17:22;7.63;;;4.47;;
56005;SDS011;41888;44.696;10.522;2023-05-07T13:19:48;6.35;;;4.45;;
56005;SDS011;41888;44.696;10.522;2023-05-07T13:22:15;5.70;;;3.95;;
56005;SDS011;41888;44.696;10.522;2023-05-07T13:24:41;5.47;;;4.13;;
56005;SDS011;41888;44.696;10.522;2023-05-07T13:27:08;7.15;;;4.68;;
56005;SDS011;41888;44.696;10.522;2023-05-07T13:29:34;8.07;;;5.10;;
56005;SDS011;41888;44.696;10.522;2023-05-07T13:32:00;5.70;;;3.70;;
56005;SDS011;41888;44.696;10.522;2023-05-07T13:34:27;5.65;;;4.05;;
56005;SDS011;41888;44.696;10.522;2023-05-07T13:36:53;6.88;;;4.55;;
56005;SDS011;41888;44.696;10.522;2023-05-07T13:39:20;5.78;;;3.63;;
56005;SDS011;41888;44.696;10.522;2023-05-07T13:41:46;7.00;;;4.05;;
56005;SDS011;41888;44.696;10.522;2023-05-07T13:44:12;5.55;;;4.20;;
56005;SDS011;41888;44.696;10.522;2023-05-07T13:46:38;4.88;;;3.97;;
56005;SDS011;41888;44.696;10.522;2023-05-07T13:49:05;4.88;;;3.58;;
56005;SDS011;41888;44.696;10.522;2023-05-07T13:51:31;4.85;;;3.80;;
56005;SDS011;41888;44.696;10.522;2023-05-07T13:53:57;5.00;;;4.35;;
56005;SDS011;41888;44.696;10.522;2023-05-07T13:56:23;6.60;;;3.65;;
56005;SDS011;41888;44.696;10.522;2023-05-07T13:58:49;5.43;;;3.72;;
56005;SDS011;41888;44.696;10.522;2023-05-07T14:01:15;4.25;;;3.40;;
56005;SDS011;41888;44.696;10.522;2023-05-07T14:03:42;6.88;;;4.10;;
56005;SDS011;41888;44.696;10.522;2023-05-07T14:06:08;5.93;;;4.03;;
56005;SDS011;41888;44.696;10.522;2023-05-07T14:08:34;5.32;;;3.40;;
56005;SDS011;41888;44.696;10.522;2023-05-07T14:11:00;7.57;;;3.78;;
56005;SDS011;41888;44.696;10.522;2023-05-07T14:13:26;4.10;;;3.17;;
56005;SDS011;41888;44.696;10.522;2023-05-07T14:15:53;3.97;;;3.00;;
56005;SDS011;41888;44.696;10.522;2023-05-07T14:18:19;4.82;;;3.13;;
56005;SDS011;41888;44.696;10.522;2023-05-07T14:20:45;4.38;;;3.13;;
56005;SDS011;41888;44.696;10.522;2023-05-07T14:23:13;4.25;;;3.45;;
56005;SDS011;41888;44.696;10.522;2023-05-07T14:25:41;3.70;;;2.92;;
56005;SDS011;41888;44.696;10.522;2023-05-07T14:28:08;5.03;;;3.60;;
56005;SDS011;41888;44.696;10.522;2023-05-07T14:30:34;4.75;;;3.40;;
56005;SDS011;41888;44.696;10.522;2023-05-07T14:33:01;4.85;;;3.47;;
56005;SDS011;41888;44.696;10.522;2023-05-07T14:35:27;3.95;;;3.13;;
56005;SDS011;41888;44.696;10.522;2023-05-07T14:37:53;6.00;;;3.00;;
56005;SDS011;41888;44.696;10.522;2023-05-07T14:40:19;3.47;;;3.00;;
56005;SDS011;41888;44.696;10.522;2023-05-07T14:42:45;3.92;;;3.25;;
56005;SDS011;41888;44.696;10.522;2023-05-07T14:45:11;5.78;;;3.97;;
56005;SDS011;41888;44.696;10.522;2023-05-07T14:47:38;4.57;;;3.30;;
56005;SDS011;41888;44.696;10.522;2023-05-07T14:50:04;4.05;;;3.25;;
56005;SDS011;41888;44.696;10.522;2023-05-07T14:52:30;4.82;;;3.55;;
56005;SDS011;41888;44.696;10.522;2023-05-07T14:54:56;5.05;;;3.47;;
56005;SDS011;41888;44.696;10.522;2023-05-07T14:57:23;5.53;;;3.35;;
56005;SDS011;41888;44.696;10.522;2023-05-07T14:59:49;5.43;;;3.08;;